sensor_id;sensor_type;location;lat;lon;timestamp;pressure;altitude;pressure_sealevel;temperature;humidity
75650;BME280;64245;51.282;22.494;2023-06-24T00:02:08;98999.78;;;18.82;100.00
75650;BME280;64245;51.282;22.494;2023-06-24T00:04:34;98994.69;;;18.72;100.00
75650;BME280;64245;51.282;22.494;2023-06-24T00:07:00;98995.75;;;18.71;100.00
75650;BME280;64245;51.282;22.494;2023-06-24T00:09:29;99007.50;;;18.65;100.00
75650;BME280;64245;51.282;22.494;2023-06-24T00:11:56;99002.56;;;18.54;100.00
75650;BME280;64245;51.282;22.494;2023-06-24T00:14:22;99004.66;;;18.52;100.00
75650;BME280;64245;51.282;22.494;2023-06-24T00:16:50;99011.03;;;18.31;100.00
75650;BME280;64245;51.282;22.494;2023-06-24T00:19:21;98998.63;;;18.22;100.00
75650;BME280;64245;51.282;22.494;2023-06-24T00:21:48;99001.47;;;18.07;100.00
75650;BME280;64245;51.282;22.494;2023-06-24T00:24:17;99016.78;;;18.08;100.00
75650;BME280;64245;51.282;22.494;2023-06-24T00:26:45;99024.72;;;18.10;100.00
75650;BME280;64245;51.282;22.494;2023-06-24T00:29:11;99026.38;;;18.04;100.00
75650;BME280;64245;51.282;22.494;2023-06-24T00:31:37;99036.66;;;18.02;100.00
75650;BME280;64245;51.282;22.494;2023-06-24T00:34:03;99022.69;;;17.84;100.00
75650;BME280;64245;51.282;22.494;2023-06-24T00:36:30;99039.88;;;17.84;100.00
75650;BME280;64245;51.282;22.494;2023-06-24T00:38:58;99058.22;;;17.76;100.00
75650;BME280;64245;51.282;22.494;2023-06-24T00:41:26;99065.34;;;17.77;100.00
75650;BME280;64245;51.282;22.494;2023-06-24T00:43:52;99066.13;;;17.71;100.00
75650;BME280;64245;51.282;22.494;2023-06-24T00:46:18;99065.50;;;17.69;100.00
75650;BME280;64245;51.282;22.494;2023-06-24T00:48:45;99070.66;;;17.64;100.00
75650;BME280;64245;51.282;22.494;2023-06-24T00:51:10;99059.75;;;17.64;100.00
75650;BME280;64245;51.282;22.494;2023-06-24T00:53:36;99071.16;;;17.67;100.00
75650;BME280;64245;51.282;22.494;2023-06-24T00:56:03;99079.22;;;17.60;100.00
75650;BME280;64245;51.282;22.494;2023-06-24T00:58:31;99083.53;;;17.55;100.00
75650;BME280;64245;51.282;22.494;2023-06-24T01:00:58;99076.50;;;17.60;100.00
75650;BME280;64245;51.282;22.494;2023-06-24T01:03:25;99085.16;;;17.64;100.00
75650;BME280;64245;51.282;22.494;2023-06-24T01:05:51;99094.63;;;17.68;100.00
75650;BME280;64245;51.282;22.494;2023-06-24T01:08:18;99088.81;;;17.56;100.00
75650;BME280;64245;51.282;22.494;2023-06-24T01:10:45;99093.22;;;17.57;100.00
75650;BME280;64245;51.282;22.494;2023-06-24T01:13:11;99085.88;;;17.58;100.00
75650;BME280;64245;51.282;22.494;2023-06-24T01:15:37;99081.75;;;17.62;100.00
75650;BME280;64245;51.282;22.494;2023-06-24T01:20:41;99089.59;;;17.50;100.00
75650;BME280;64245;51.282;22.494;2023-06-24T01:23:42;99086.59;;;17.45;100.00
75650;BME280;64245;51.282;22.494;2023-06-24T01:26:21;99092.28;;;17.29;100.00
75650;BME280;64245;51.282;22.494;2023-06-24T01:34:31;99091.47;;;17.14;100.00
75650;BME280;64245;51.282;22.494;2023-06-24T01:37:14;99088.97;;;17.12;100.00
75650;BME280;64245;51.282;22.494;2023-06-24T01:39:49;99096.56;;;17.02;100.00
75650;BME280;64245;51.282;22.494;2023-06-24T01:42:16;99107.34;;;16.96;100.00
75650;BME280;64245;51.282;22.494;2023-06-24T01:44:44;99097.63;;;16.86;100.00
75650;BME280;64245;51.282;22.494;2023-06-24T01:47:11;99101.47;;;16.92;100.00
75650;BME280;64245;51.282;22.494;2023-06-24T01:49:40;99099.13;;;16.89;100.00
75650;BME280;64245;51.282;22.494;2023-06-24T01:52:08;99086.19;;;16.76;100.00
75650;BME280;64245;51.282;22.494;2023-06-24T01:54:35;99101.41;;;16.71;100.00
75650;BME280;64245;51.282;22.494;2023-06-24T01:57:03;99103.84;;;16.66;100.00
75650;BME280;64245;51.282;22.494;2023-06-24T01:59:31;99099.94;;;16.60;100.00
75650;BME280;64245;51.282;22.494;2023-06-24T02:01:59;99117.66;;;16.56;100.00
75650;BME280;64245;51.282;22.494;2023-06-24T02:04:27;99118.50;;;16.56;100.00
75650;BME280;64245;51.282;22.494;2023-06-24T02:07:00;99121.50;;;16.47;100.00
75650;BME280;64245;51.282;22.494;2023-06-24T02:09:28;99120.19;;;16.57;100.00
75650;BME280;64245;51.282;22.494;2023-06-24T02:11:56;99118.44;;;16.50;100.00
75650;BME280;64245;51.282;22.494;2023-06-24T02:14:22;99122.06;;;16.42;100.00
75650;BME280;64245;51.282;22.494;2023-06-24T02:16:49;99126.28;;;16.45;100.00
75650;BME280;64245;51.282;22.494;2023-06-24T02:19:24;99124.91;;;16.49;100.00
75650;BME280;64245;51.282;22.494;2023-06-24T02:21:51;99101.91;;;16.37;100.00
75650;BME280;64245;51.282;22.494;2023-06-24T02:24:19;99113.06;;;16.42;100.00
75650;BME280;64245;51.282;22.494;2023-06-24T02:26:45;99121.59;;;16.39;100.00
75650;BME280;64245;51.282;22.494;2023-06-24T02:29:13;99112.59;;;16.38;100.00
75650;BME280;64245;51.282;22.494;2023-06-24T02:31:39;99108.94;;;16.31;100.00
75650;BME280;64245;51.282;22.494;2023-06-24T02:34:05;99122.63;;;16.38;100.00
75650;BME280;64245;51.282;22.494;2023-06-24T02:36:31;99122.25;;;16.26;100.00
75650;BME280;64245;51.282;22.494;2023-06-24T02:38:57;99128.16;;;16.30;100.00
75650;BME280;64245;51.282;22.494;2023-06-24T02:41:22;99117.19;;;16.38;100.00
75650;BME280;64245;51.282;22.494;2023-06-24T02:43:48;99122.63;;;16.38;100.00
75650;BME280;64245;51.282;22.494;2023-06-24T02:46:15;99127.69;;;16.41;100.00
75650;BME280;64245;51.282;22.494;2023-06-24T02:48:41;99126.38;;;16.37;100.00
75650;BME280;64245;51.282;22.494;2023-06-24T02:51:08;99123.94;;;16.27;100.00
75650;BME280;64245;51.282;22.494;2023-06-24T02:53:37;99150.28;;;16.41;100.00
75650;BME280;64245;51.282;22.494;2023-06-24T02:56:04;99147.94;;;16.38;100.00
75650;BME280;64245;51.282;22.494;2023-06-24T02:58:31;99154.63;;;16.50;100.00
75650;BME280;64245;51.282;22.494;2023-06-24T03:01:01;99158.91;;;16.45;100.00
75650;BME280;64245;51.282;22.494;2023-06-24T03:03:28;99157.59;;;16.41;100.00
75650;BME280;64245;51.282;22.494;2023-06-24T03:05:55;99155.41;;;16.36;100.00
75650;BME280;64245;51.282;22.494;2023-06-24T03:08:23;99167.03;;;16.30;100.00
75650;BME280;64245;51.282;22.494;2023-06-24T03:10:50;99168.56;;;16.33;100.00
75650;BME280;64245;51.282;22.494;2023-06-24T03:13:17;99165.91;;;16.39;100.00
75650;BME280;64245;51.282;22.494;2023-06-24T03:15:42;99162.34;;;16.39;100.00
75650;BME280;64245;51.282;22.494;2023-06-24T03:18:08;99158.97;;;16.37;100.00
75650;BME280;64245;51.282;22.494;2023-06-24T03:20:33;99160.84;;;16.36;100.00
75650;BME280;64245;51.282;22.494;2023-06-24T03:23:07;99164.88;;;16.26;100.00
75650;BME280;64245;51.282;22.494;2023-06-24T03:25:34;99178.56;;;16.32;100.00
75650;BME280;64245;51.282;22.494;2023-06-24T03:28:00;99178.09;;;16.29;100.00
75650;BME280;64245;51.282;22.494;2023-06-24T03:30:26;99168.56;;;16.33;100.00
75650;BME280;64245;51.282;22.494;2023-06-24T03:32:52;99180.97;;;16.50;100.00
75650;BME280;64245;51.282;22.494;2023-06-24T03:35:18;99178.25;;;16.50;100.00
75650;BME280;64245;51.282;22.494;2023-06-24T03:37:44;99175.16;;;16.53;100.00
75650;BME280;64245;51.282;22.494;2023-06-24T03:40:10;99179.56;;;16.54;100.00
75650;BME280;64245;51.282;22.494;2023-06-24T03:42:36;99167.91;;;16.45;100.00
75650;BME280;64245;51.282;22.494;2023-06-24T03:45:04;99162.78;;;16.50;99.80
75650;BME280;64245;51.282;22.494;2023-06-24T03:47:30;99173.28;;;16.53;99.57
75650;BME280;64245;51.282;22.494;2023-06-24T03:49:56;99185.00;;;16.54;99.23
75650;BME280;64245;51.282;22.494;2023-06-24T03:52:22;99182.91;;;16.56;99.04
75650;BME280;64245;51.282;22.494;2023-06-24T03:54:47;99184.22;;;16.60;98.82
75650;BME280;64245;51.282;22.494;2023-06-24T03:57:13;99173.81;;;16.49;99.00
75650;BME280;64245;51.282;22.494;2023-06-24T03:59:39;99186.03;;;16.53;98.53
75650;BME280;64245;51.282;22.494;2023-06-24T04:02:05;99190.44;;;16.54;98.42
75650;BME280;64245;51.282;22.494;2023-06-24T04:04:34;99193.41;;;16.44;99.54
75650;BME280;64245;51.282;22.494;2023-06-24T04:06:59;99190.03;;;16.42;99.27
75650;BME280;64245;51.282;22.494;2023-06-24T04:09:25;99192.91;;;16.41;98.89
75650;BME280;64245;51.282;22.494;2023-06-24T04:11:51;99205.31;;;16.43;98.96
75650;BME280;64245;51.282;22.494;2023-06-24T04:14:16;99208.56;;;16.39;99.07
75650;BME280;64245;51.282;22.494;2023-06-24T04:16:42;99198.19;;;16.42;98.66
75650;BME280;64245;51.282;22.494;2023-06-24T04:19:08;99205.78;;;16.47;98.43
75650;BME280;64245;51.282;22.494;2023-06-24T04:21:34;99213.94;;;16.47;99.11
75650;BME280;64245;51.282;22.494;2023-06-24T04:23:59;99205.13;;;16.45;98.82
75650;BME280;64245;51.282;22.494;2023-06-24T04:26:25;99206.81;;;16.46;98.99
75650;BME280;64245;51.282;22.494;2023-06-24T04:28:50;99208.31;;;16.48;99.25
75650;BME280;64245;51.282;22.494;2023-06-24T04:31:16;99200.91;;;16.57;98.32
75650;BME280;64245;51.282;22.494;2023-06-24T04:33:42;99212.78;;;16.64;98.16
75650;BME280;64245;51.282;22.494;2023-06-24T04:36:08;99214.78;;;16.70;97.27
75650;BME280;64245;51.282;22.494;2023-06-24T04:38:33;99221.72;;;16.87;96.60
75650;BME280;64245;51.282;22.494;2023-06-24T04:40:59;99223.72;;;17.08;95.93
75650;BME280;64245;51.282;22.494;2023-06-24T04:43:27;99234.50;;;17.31;93.99
75650;BME280;64245;51.282;22.494;2023-06-24T04:45:54;99241.63;;;17.47;93.81
75650;BME280;64245;51.282;22.494;2023-06-24T04:48:23;99239.13;;;17.52;92.67
75650;BME280;64245;51.282;22.494;2023-06-24T04:50:49;99236.97;;;17.62;92.82
75650;BME280;64245;51.282;22.494;2023-06-24T04:53:15;99233.91;;;17.65;92.02
75650;BME280;64245;51.282;22.494;2023-06-24T04:55:40;99235.94;;;17.63;91.31
75650;BME280;64245;51.282;22.494;2023-06-24T04:58:06;99248.63;;;17.56;91.01
75650;BME280;64245;51.282;22.494;2023-06-24T05:00:32;99238.94;;;17.53;91.61
75650;BME280;64245;51.282;22.494;2023-06-24T05:02:58;99259.97;;;17.59;91.54
75650;BME280;64245;51.282;22.494;2023-06-24T05:05:23;99247.03;;;17.61;89.51
75650;BME280;64245;51.282;22.494;2023-06-24T05:07:49;99243.38;;;17.54;90.58
75650;BME280;64245;51.282;22.494;2023-06-24T05:10:15;99254.28;;;17.69;90.89
75650;BME280;64245;51.282;22.494;2023-06-24T05:12:40;99258.28;;;17.73;90.78
75650;BME280;64245;51.282;22.494;2023-06-24T05:15:07;99266.94;;;17.77;90.40
75650;BME280;64245;51.282;22.494;2023-06-24T05:17:33;99269.84;;;17.75;91.80
75650;BME280;64245;51.282;22.494;2023-06-24T05:19:59;99266.28;;;17.75;90.70
75650;BME280;64245;51.282;22.494;2023-06-24T05:22:24;99262.13;;;17.79;90.48
75650;BME280;64245;51.282;22.494;2023-06-24T05:24:50;99264.41;;;17.75;90.29
75650;BME280;64245;51.282;22.494;2023-06-24T05:27:15;99266.19;;;17.83;90.72
75650;BME280;64245;51.282;22.494;2023-06-24T05:29:43;99268.19;;;17.95;89.84
75650;BME280;64245;51.282;22.494;2023-06-24T05:32:08;99264.19;;;18.13;87.89
75650;BME280;64245;51.282;22.494;2023-06-24T05:34:34;99261.47;;;18.13;87.86
75650;BME280;64245;51.282;22.494;2023-06-24T05:37:00;99253.38;;;18.19;88.63
75650;BME280;64245;51.282;22.494;2023-06-24T05:39:26;99267.78;;;18.35;87.50
75650;BME280;64245;51.282;22.494;2023-06-24T05:41:52;99253.19;;;18.42;86.29
75650;BME280;64245;51.282;22.494;2023-06-24T05:44:18;99259.59;;;18.56;87.16
75650;BME280;64245;51.282;22.494;2023-06-24T05:46:44;99258.00;;;18.61;86.48
75650;BME280;64245;51.282;22.494;2023-06-24T05:49:10;99264.69;;;18.59;87.06
75650;BME280;64245;51.282;22.494;2023-06-24T05:51:36;99266.88;;;18.70;85.27
75650;BME280;64245;51.282;22.494;2023-06-24T05:54:02;99265.38;;;18.68;84.99
75650;BME280;64245;51.282;22.494;2023-06-24T05:56:28;99274.72;;;18.80;84.79
75650;BME280;64245;51.282;22.494;2023-06-24T05:58:54;99271.53;;;18.76;83.25
75650;BME280;64245;51.282;22.494;2023-06-24T06:01:20;99271.16;;;18.79;83.62
75650;BME280;64245;51.282;22.494;2023-06-24T06:03:45;99271.94;;;18.73;82.83
75650;BME280;64245;51.282;22.494;2023-06-24T06:06:11;99271.75;;;18.75;83.73
75650;BME280;64245;51.282;22.494;2023-06-24T06:08:37;99263.22;;;18.84;84.13
75650;BME280;64245;51.282;22.494;2023-06-24T06:11:03;99270.28;;;19.07;84.04
75650;BME280;64245;51.282;22.494;2023-06-24T06:13:29;99271.50;;;19.32;84.89
75650;BME280;64245;51.282;22.494;2023-06-24T06:15:55;99258.25;;;19.29;82.68
75650;BME280;64245;51.282;22.494;2023-06-24T06:18:21;99273.91;;;19.42;81.70
75650;BME280;64245;51.282;22.494;2023-06-24T06:20:47;99270.97;;;19.43;82.19
75650;BME280;64245;51.282;22.494;2023-06-24T06:23:13;99270.72;;;19.38;82.25
75650;BME280;64245;51.282;22.494;2023-06-24T06:25:38;99268.63;;;19.40;84.29
75650;BME280;64245;51.282;22.494;2023-06-24T06:28:04;99271.84;;;19.50;81.54
75650;BME280;64245;51.282;22.494;2023-06-24T06:30:30;99272.69;;;19.51;81.16
75650;BME280;64245;51.282;22.494;2023-06-24T06:32:56;99275.06;;;19.60;82.35
75650;BME280;64245;51.282;22.494;2023-06-24T06:35:22;99287.78;;;19.88;81.13
75650;BME280;64245;51.282;22.494;2023-06-24T06:37:48;99286.78;;;20.02;79.67
75650;BME280;64245;51.282;22.494;2023-06-24T06:40:21;99280.94;;;20.12;80.12
75650;BME280;64245;51.282;22.494;2023-06-24T06:42:47;99282.22;;;20.22;78.24
75650;BME280;64245;51.282;22.494;2023-06-24T06:45:13;99273.69;;;20.52;77.70
75650;BME280;64245;51.282;22.494;2023-06-24T06:47:39;99272.88;;;20.58;75.70
75650;BME280;64245;51.282;22.494;2023-06-24T06:50:05;99271.59;;;20.67;76.39
75650;BME280;64245;51.282;22.494;2023-06-24T06:52:31;99272.44;;;20.74;76.40
75650;BME280;64245;51.282;22.494;2023-06-24T06:54:56;99273.88;;;21.03;76.94
75650;BME280;64245;51.282;22.494;2023-06-24T06:57:22;99279.97;;;21.18;74.67
75650;BME280;64245;51.282;22.494;2023-06-24T06:59:48;99270.75;;;20.93;72.99
75650;BME280;64245;51.282;22.494;2023-06-24T07:02:17;99276.84;;;21.01;74.97
75650;BME280;64245;51.282;22.494;2023-06-24T07:04:43;99276.66;;;20.90;73.82
75650;BME280;64245;51.282;22.494;2023-06-24T07:07:09;99274.09;;;20.82;74.12
75650;BME280;64245;51.282;22.494;2023-06-24T07:09:34;99276.88;;;20.75;72.83
75650;BME280;64245;51.282;22.494;2023-06-24T07:12:01;99275.81;;;20.76;74.43
75650;BME280;64245;51.282;22.494;2023-06-24T07:14:27;99279.38;;;20.83;73.86
75650;BME280;64245;51.282;22.494;2023-06-24T07:16:53;99281.03;;;20.97;74.07
75650;BME280;64245;51.282;22.494;2023-06-24T07:19:18;99283.19;;;20.89;72.84
75650;BME280;64245;51.282;22.494;2023-06-24T07:21:44;99277.91;;;20.81;74.69
75650;BME280;64245;51.282;22.494;2023-06-24T07:24:10;99281.69;;;20.80;73.36
75650;BME280;64245;51.282;22.494;2023-06-24T07:26:35;99274.97;;;20.69;73.97
75650;BME280;64245;51.282;22.494;2023-06-24T07:29:06;99279.78;;;20.80;75.32
75650;BME280;64245;51.282;22.494;2023-06-24T07:31:32;99272.44;;;20.87;73.58
75650;BME280;64245;51.282;22.494;2023-06-24T07:33:57;99276.00;;;21.01;74.85
75650;BME280;64245;51.282;22.494;2023-06-24T07:36:23;99272.41;;;21.14;73.00
75650;BME280;64245;51.282;22.494;2023-06-24T07:38:49;99259.78;;;20.80;74.02
75650;BME280;64245;51.282;22.494;2023-06-24T07:41:14;99278.53;;;21.02;74.81
75650;BME280;64245;51.282;22.494;2023-06-24T07:43:40;99280.00;;;20.98;76.34
75650;BME280;64245;51.282;22.494;2023-06-24T07:46:06;99277.69;;;21.02;73.50
75650;BME280;64245;51.282;22.494;2023-06-24T07:48:31;99290.34;;;20.96;74.19
75650;BME280;64245;51.282;22.494;2023-06-24T07:50:57;99299.38;;;21.03;75.78
75650;BME280;64245;51.282;22.494;2023-06-24T07:53:23;99284.84;;;21.10;73.01
75650;BME280;64245;51.282;22.494;2023-06-24T07:55:49;99285.91;;;21.28;71.46
75650;BME280;64245;51.282;22.494;2023-06-24T07:58:14;99302.03;;;21.63;74.97
75650;BME280;64245;51.282;22.494;2023-06-24T08:00:40;99299.94;;;21.65;70.18
75650;BME280;64245;51.282;22.494;2023-06-24T08:03:05;99301.28;;;21.94;71.72
75650;BME280;64245;51.282;22.494;2023-06-24T08:05:31;99305.28;;;22.11;68.32
75650;BME280;64245;51.282;22.494;2023-06-24T08:07:57;99312.50;;;21.92;67.37
75650;BME280;64245;51.282;22.494;2023-06-24T08:10:23;99307.81;;;22.06;68.83
75650;BME280;64245;51.282;22.494;2023-06-24T08:12:48;99321.09;;;22.09;67.70
75650;BME280;64245;51.282;22.494;2023-06-24T08:15:14;99336.28;;;21.98;64.96
75650;BME280;64245;51.282;22.494;2023-06-24T08:17:40;99321.72;;;21.33;66.40
75650;BME280;64245;51.282;22.494;2023-06-24T08:20:06;99332.44;;;21.48;68.58
75650;BME280;64245;51.282;22.494;2023-06-24T08:22:31;99334.50;;;21.66;68.50
75650;BME280;64245;51.282;22.494;2023-06-24T08:24:58;99346.00;;;21.94;66.26
75650;BME280;64245;51.282;22.494;2023-06-24T08:27:24;99335.81;;;22.21;65.08
75650;BME280;64245;51.282;22.494;2023-06-24T08:29:49;99341.38;;;22.46;64.54
75650;BME280;64245;51.282;22.494;2023-06-24T08:32:15;99343.00;;;22.54;65.26
75650;BME280;64245;51.282;22.494;2023-06-24T08:34:41;99342.09;;;22.66;67.35
75650;BME280;64245;51.282;22.494;2023-06-24T08:37:07;99332.97;;;22.72;63.52
75650;BME280;64245;51.282;22.494;2023-06-24T08:39:35;99329.56;;;23.08;65.78
75650;BME280;64245;51.282;22.494;2023-06-24T08:42:02;99322.66;;;22.99;61.21
75650;BME280;64245;51.282;22.494;2023-06-24T08:44:28;99346.72;;;23.04;65.96
75650;BME280;64245;51.282;22.494;2023-06-24T08:46:53;99342.41;;;23.15;62.04
75650;BME280;64245;51.282;22.494;2023-06-24T08:52:13;99347.63;;;22.60;58.40
75650;BME280;64245;51.282;22.494;2023-06-24T08:54:41;99341.16;;;22.86;60.90
75650;BME280;64245;51.282;22.494;2023-06-24T08:57:06;99332.59;;;23.25;58.69
75650;BME280;64245;51.282;22.494;2023-06-24T08:59:33;99335.03;;;23.33;61.09
75650;BME280;64245;51.282;22.494;2023-06-24T09:01:59;99323.59;;;23.61;61.23
75650;BME280;64245;51.282;22.494;2023-06-24T09:04:25;99325.13;;;23.51;61.86
75650;BME280;64245;51.282;22.494;2023-06-24T09:06:51;99325.22;;;23.44;56.54
75650;BME280;64245;51.282;22.494;2023-06-24T09:09:21;99340.88;;;23.43;54.91
75650;BME280;64245;51.282;22.494;2023-06-24T09:11:55;99333.22;;;23.27;55.43
75650;BME280;64245;51.282;22.494;2023-06-24T09:14:21;99330.72;;;23.44;55.59
75650;BME280;64245;51.282;22.494;2023-06-24T09:17:00;99332.22;;;23.40;58.54
75650;BME280;64245;51.282;22.494;2023-06-24T09:19:28;99319.03;;;23.49;60.59
75650;BME280;64245;51.282;22.494;2023-06-24T09:22:03;99327.25;;;23.55;58.50
75650;BME280;64245;51.282;22.494;2023-06-24T09:24:36;99325.13;;;23.51;59.17
75650;BME280;64245;51.282;22.494;2023-06-24T09:27:03;99317.84;;;23.20;59.08
75650;BME280;64245;51.282;22.494;2023-06-24T09:29:32;99329.44;;;22.97;58.80
75650;BME280;64245;51.282;22.494;2023-06-24T09:31:58;99315.75;;;22.90;59.22
75650;BME280;64245;51.282;22.494;2023-06-24T09:34:28;99314.81;;;23.03;56.14
75650;BME280;64245;51.282;22.494;2023-06-24T09:36:55;99321.44;;;23.20;58.59
75650;BME280;64245;51.282;22.494;2023-06-24T09:39:22;99320.59;;;23.20;60.40
75650;BME280;64245;51.282;22.494;2023-06-24T09:41:54;99316.59;;;23.16;56.40
75650;BME280;64245;51.282;22.494;2023-06-24T09:44:20;99311.78;;;23.11;56.77
75650;BME280;64245;51.282;22.494;2023-06-24T09:46:46;99325.63;;;23.23;57.12
75650;BME280;64245;51.282;22.494;2023-06-24T09:49:12;99326.25;;;23.25;58.47
75650;BME280;64245;51.282;22.494;2023-06-24T09:51:39;99321.78;;;23.05;59.33
75650;BME280;64245;51.282;22.494;2023-06-24T09:54:09;99335.78;;;23.22;59.92
75650;BME280;64245;51.282;22.494;2023-06-24T09:56:36;99344.28;;;23.39;59.68
75650;BME280;64245;51.282;22.494;2023-06-24T09:59:05;99330.91;;;23.24;63.34
75650;BME280;64245;51.282;22.494;2023-06-24T10:01:32;99338.97;;;23.44;59.37
75650;BME280;64245;51.282;22.494;2023-06-24T10:03:58;99352.47;;;23.89;58.77
75650;BME280;64245;51.282;22.494;2023-06-24T10:06:25;99340.25;;;24.03;54.86
75650;BME280;64245;51.282;22.494;2023-06-24T10:08:52;99352.25;;;23.90;55.43
75650;BME280;64245;51.282;22.494;2023-06-24T10:11:17;99354.13;;;23.71;55.42
75650;BME280;64245;51.282;22.494;2023-06-24T10:13:43;99348.41;;;23.48;57.85
75650;BME280;64245;51.282;22.494;2023-06-24T10:16:09;99359.09;;;23.38;56.06
75650;BME280;64245;51.282;22.494;2023-06-24T10:18:37;99340.63;;;23.27;55.13
75650;BME280;64245;51.282;22.494;2023-06-24T10:21:04;99356.03;;;23.53;56.42
75650;BME280;64245;51.282;22.494;2023-06-24T10:23:50;99355.44;;;23.69;52.80
75650;BME280;64245;51.282;22.494;2023-06-24T10:26:27;99351.09;;;23.80;51.51
75650;BME280;64245;51.282;22.494;2023-06-24T10:34:32;99357.28;;;24.30;58.38
75650;BME280;64245;51.282;22.494;2023-06-24T10:44:50;99355.53;;;23.62;54.17
75650;BME280;64245;51.282;22.494;2023-06-24T10:47:17;99358.47;;;23.36;52.12
75650;BME280;64245;51.282;22.494;2023-06-24T10:49:43;99356.28;;;23.69;51.02
75650;BME280;64245;51.282;22.494;2023-06-24T10:52:10;99361.41;;;23.66;51.05
75650;BME280;64245;51.282;22.494;2023-06-24T10:54:37;99348.97;;;23.82;49.90
75650;BME280;64245;51.282;22.494;2023-06-24T10:57:03;99350.94;;;23.93;51.08
75650;BME280;64245;51.282;22.494;2023-06-24T10:59:44;99367.00;;;23.96;51.63
75650;BME280;64245;51.282;22.494;2023-06-24T11:02:16;99357.66;;;24.15;50.93
75650;BME280;64245;51.282;22.494;2023-06-24T11:04:50;99351.72;;;24.36;52.25
75650;BME280;64245;51.282;22.494;2023-06-24T11:07:18;99356.94;;;24.56;53.90
75650;BME280;64245;51.282;22.494;2023-06-24T11:09:54;99355.81;;;24.45;52.51
75650;BME280;64245;51.282;22.494;2023-06-24T11:12:31;99364.81;;;24.53;55.46
75650;BME280;64245;51.282;22.494;2023-06-24T11:15:08;99357.41;;;24.53;51.56
75650;BME280;64245;51.282;22.494;2023-06-24T11:17:34;99357.44;;;24.35;51.71
75650;BME280;64245;51.282;22.494;2023-06-24T11:20:02;99358.38;;;24.59;49.56
75650;BME280;64245;51.282;22.494;2023-06-24T11:22:31;99358.63;;;24.57;57.81
75650;BME280;64245;51.282;22.494;2023-06-24T11:24:57;99341.13;;;24.63;49.60
75650;BME280;64245;51.282;22.494;2023-06-24T11:27:30;99349.00;;;24.78;52.85
75650;BME280;64245;51.282;22.494;2023-06-24T11:30:00;99336.91;;;24.91;50.62
75650;BME280;64245;51.282;22.494;2023-06-24T11:32:37;99337.59;;;25.16;51.18
75650;BME280;64245;51.282;22.494;2023-06-24T11:35:08;99350.28;;;25.05;51.67
75650;BME280;64245;51.282;22.494;2023-06-24T11:37:33;99346.63;;;24.93;49.04
75650;BME280;64245;51.282;22.494;2023-06-24T11:40:07;99343.81;;;25.00;51.47
75650;BME280;64245;51.282;22.494;2023-06-24T11:42:37;99348.75;;;24.01;52.51
75650;BME280;64245;51.282;22.494;2023-06-24T11:45:05;99355.53;;;24.35;54.43
75650;BME280;64245;51.282;22.494;2023-06-24T11:47:32;99351.56;;;23.95;55.61
75650;BME280;64245;51.282;22.494;2023-06-24T11:49:59;99353.00;;;23.97;55.79
75650;BME280;64245;51.282;22.494;2023-06-24T11:52:46;99347.56;;;24.09;60.51
75650;BME280;64245;51.282;22.494;2023-06-24T11:55:17;99346.22;;;23.82;55.33
75650;BME280;64245;51.282;22.494;2023-06-24T11:58:01;99358.59;;;23.91;61.02
75650;BME280;64245;51.282;22.494;2023-06-24T12:00:40;99355.16;;;23.95;56.42
75650;BME280;64245;51.282;22.494;2023-06-24T12:03:09;99346.72;;;23.72;64.80
75650;BME280;64245;51.282;22.494;2023-06-24T12:05:37;99351.00;;;23.86;63.09
75650;BME280;64245;51.282;22.494;2023-06-24T12:08:04;99345.38;;;23.99;55.64
75650;BME280;64245;51.282;22.494;2023-06-24T12:10:32;99335.13;;;23.88;62.41
75650;BME280;64245;51.282;22.494;2023-06-24T12:12:59;99338.25;;;23.92;61.02
75650;BME280;64245;51.282;22.494;2023-06-24T12:15:26;99344.22;;;23.70;59.93
75650;BME280;64245;51.282;22.494;2023-06-24T12:17:52;99336.34;;;23.74;52.66
75650;BME280;64245;51.282;22.494;2023-06-24T12:20:18;99335.28;;;23.93;55.12
75650;BME280;64245;51.282;22.494;2023-06-24T12:22:45;99340.38;;;23.90;55.23
75650;BME280;64245;51.282;22.494;2023-06-24T12:25:11;99342.06;;;24.09;54.38
75650;BME280;64245;51.282;22.494;2023-06-24T12:27:37;99347.50;;;24.16;50.17
75650;BME280;64245;51.282;22.494;2023-06-24T12:30:04;99342.69;;;24.11;53.59
75650;BME280;64245;51.282;22.494;2023-06-24T12:32:30;99341.72;;;24.24;59.99
75650;BME280;64245;51.282;22.494;2023-06-24T12:34:55;99328.63;;;24.19;53.84
75650;BME280;64245;51.282;22.494;2023-06-24T12:37:22;99335.13;;;24.55;58.93
75650;BME280;64245;51.282;22.494;2023-06-24T12:39:48;99337.25;;;24.83;57.40
75650;BME280;64245;51.282;22.494;2023-06-24T12:42:16;99338.16;;;24.95;52.98
75650;BME280;64245;51.282;22.494;2023-06-24T12:44:42;99328.59;;;24.97;56.63
75650;BME280;64245;51.282;22.494;2023-06-24T12:47:07;99328.41;;;24.92;52.32
75650;BME280;64245;51.282;22.494;2023-06-24T12:49:33;99329.34;;;25.16;52.29
75650;BME280;64245;51.282;22.494;2023-06-24T12:51:59;99327.06;;;25.36;53.14
75650;BME280;64245;51.282;22.494;2023-06-24T12:54:25;99335.69;;;25.52;49.31
75650;BME280;64245;51.282;22.494;2023-06-24T12:56:50;99350.41;;;25.10;52.35
75650;BME280;64245;51.282;22.494;2023-06-24T12:59:16;99345.34;;;24.96;52.16
75650;BME280;64245;51.282;22.494;2023-06-24T13:01:41;99341.06;;;25.23;53.03
75650;BME280;64245;51.282;22.494;2023-06-24T13:04:11;99345.06;;;25.51;52.00
75650;BME280;64245;51.282;22.494;2023-06-24T13:06:36;99352.50;;;25.85;53.69
75650;BME280;64245;51.282;22.494;2023-06-24T13:09:02;99346.53;;;26.57;49.38
75650;BME280;64245;51.282;22.494;2023-06-24T13:11:28;99348.88;;;26.48;50.42
75650;BME280;64245;51.282;22.494;2023-06-24T13:13:54;99343.28;;;27.55;47.83